Time;durP1;ratioP1;P1;durP2;ratioP2;P2;SDS_P1;SDS_P2;PMS_P1;PMS_P2;Temp;Humidity;BMP_temperature;BMP_pressure;BME280_temperature;BME280_humidity;BME280_pressure;Samples;Min_cycle;Max_cycle;Signal;HPM_P1;HPM_P2
2022/12/04 00:02:21;;;;;;;142.53;86.43;;;;;;;;;;4373489;32;20351;-81
2022/12/04 00:04:49;;;;;;;138.23;80.57;;;;;;;;;;4373510;32;20234;-88
2022/12/04 00:07:19;;;;;;;108.10;66.93;;;;;;;;;;4373415;32;20597;-84
2022/12/04 00:09:46;;;;;;;110.60;65.27;;;;;;;;;;4373146;32;20295;-88
2022/12/04 00:12:14;;;;;;;135.07;76.27;;;;;;;;;;4360058;32;20261;-82
2022/12/04 00:14:41;;;;;;;141.00;78.33;;;;;;;;;;4373299;32;20321;-81
2022/12/04 00:17:07;;;;;;;146.47;82.13;;;;;;;;;;4373384;32;20241;-82
2022/12/04 00:19:36;;;;;;;123.83;72.27;;;;;;;;;;4372773;32;20340;-81
2022/12/04 00:22:03;;;;;;;105.30;63.43;;;;;;;;;;4372853;32;20253;-82
2022/12/04 00:24:29;;;;;;;88.57;56.80;;;;;;;;;;4375321;32;20234;-78
2022/12/04 00:26:56;;;;;;;78.77;52.60;;;;;;;;;;4387826;32;20291;-83
2022/12/04 00:29:29;;;;;;;84.97;51.30;;;;;;;;;;4387668;32;20322;-80
2022/12/04 00:31:56;;;;;;;73.20;46.77;;;;;;;;;;4388086;32;20263;-88
2022/12/04 00:34:23;;;;;;;71.03;48.17;;;;;;;;;;4387805;32;20253;-83
2022/12/04 00:36:52;;;;;;;82.23;51.03;;;;;;;;;;4387526;32;20309;-88
2022/12/04 00:39:19;;;;;;;78.87;48.77;;;;;;;;;;4382888;32;20931;-80
2022/12/04 00:41:45;;;;;;;81.57;50.70;;;;;;;;;;4387148;32;20256;-88
2022/12/04 00:44:12;;;;;;;101.40;59.00;;;;;;;;;;4387735;32;20698;-81
2022/12/04 00:46:40;;;;;;;100.67;60.73;;;;;;;;;;4387531;32;20881;-82
2022/12/04 00:49:07;;;;;;;100.60;61.47;;;;;;;;;;4387255;32;20657;-81
2022/12/04 00:51:34;;;;;;;112.77;65.87;;;;;;;;;;4387612;32;20372;-86
2022/12/04 00:54:01;;;;;;;110.63;66.77;;;;;;;;;;4387208;32;20354;-82
2022/12/04 00:56:28;;;;;;;113.40;66.57;;;;;;;;;;4387414;32;20287;-88
2022/12/04 00:58:56;;;;;;;117.10;67.33;;;;;;;;;;4387125;32;20220;-82
2022/12/04 01:01:24;;;;;;;113.43;68.17;;;;;;;;;;4387790;32;20271;-82
2022/12/04 01:03:56;;;;;;;112.63;66.13;;;;;;;;;;4387391;32;20249;-79
2022/12/04 01:06:29;;;;;;;119.10;71.17;;;;;;;;;;4387632;32;20218;-80
2022/12/04 01:08:57;;;;;;;127.63;74.60;;;;;;;;;;4387141;32;20245;-88
2022/12/04 01:11:26;;;;;;;133.13;74.53;;;;;;;;;;4387983;32;20222;-90
2022/12/04 01:13:55;;;;;;;136.33;77.57;;;;;;;;;;4387630;32;20241;-81
2022/12/04 01:16:27;;;;;;;134.37;77.17;;;;;;;;;;4387834;32;20240;-81
2022/12/04 01:18:58;;;;;;;123.10;71.53;;;;;;;;;;4389940;32;20245;-80
2022/12/04 01:21:24;;;;;;;119.57;70.53;;;;;;;;;;4389233;32;20221;-89
2022/12/04 01:23:52;;;;;;;104.60;63.17;;;;;;;;;;4389690;32;20287;-87
2022/12/04 01:26:18;;;;;;;114.07;66.80;;;;;;;;;;4377562;32;20225;-80
2022/12/04 01:28:45;;;;;;;94.07;53.67;;;;;;;;;;4394537;32;20304;-81
2022/12/04 01:31:14;;;;;;;83.37;50.30;;;;;;;;;;4391771;32;20263;-80
2022/12/04 01:33:42;;;;;;;76.47;48.87;;;;;;;;;;4391412;32;20330;-80
2022/12/04 01:36:13;;;;;;;92.53;52.33;;;;;;;;;;4388885;32;20708;-81
2022/12/04 01:38:40;;;;;;;92.53;53.87;;;;;;;;;;4392525;32;20213;-79
2022/12/04 01:41:09;;;;;;;90.50;55.40;;;;;;;;;;4390790;32;20311;-80
2022/12/04 01:43:38;;;;;;;92.47;56.00;;;;;;;;;;4403494;32;20209;-85
2022/12/04 01:46:05;;;;;;;92.03;55.50;;;;;;;;;;4397270;32;20241;-80
2022/12/04 01:48:36;;;;;;;83.40;49.53;;;;;;;;;;4396338;32;20253;-84
2022/12/04 01:51:06;;;;;;;82.70;50.03;;;;;;;;;;4399463;32;20245;-80
2022/12/04 01:53:38;;;;;;;80.47;49.20;;;;;;;;;;4392752;32;20245;-80
2022/12/04 01:56:06;;;;;;;80.03;47.90;;;;;;;;;;4390148;32;20260;-85
2022/12/04 01:58:37;;;;;;;74.90;46.53;;;;;;;;;;4390575;32;20969;-85
2022/12/04 02:01:06;;;;;;;68.63;44.47;;;;;;;;;;4390018;32;20317;-89
2022/12/04 02:03:34;;;;;;;64.67;41.30;;;;;;;;;;4390196;32;20773;-84
2022/12/04 02:06:01;;;;;;;67.30;42.10;;;;;;;;;;4391309;32;20311;-81
2022/12/04 02:08:28;;;;;;;66.47;43.33;;;;;;;;;;4392593;32;20303;-80
2022/12/04 02:11:07;;;;;;;59.40;41.43;;;;;;;;;;4400590;32;20201;-85
2022/12/04 02:13:44;;;;;;;70.63;43.63;;;;;;;;;;4408737;32;20266;-82
2022/12/04 02:16:19;;;;;;;79.43;47.87;;;;;;;;;;4402198;32;20356;-89
2022/12/04 02:18:57;;;;;;;68.93;44.33;;;;;;;;;;4394912;32;20245;-82
2022/12/04 02:21:32;;;;;;;75.07;45.13;;;;;;;;;;4387823;32;20676;-87
2022/12/04 02:24:26;;;;;;;70.73;44.90;;;;;;;;;;4374795;32;20225;-81
2022/12/04 02:26:58;;;;;;;67.10;43.70;;;;;;;;;;4376089;32;20250;-80
2022/12/04 02:29:36;;;;;;;72.33;43.80;;;;;;;;;;4389982;32;20225;-79
2022/12/04 02:32:09;;;;;;;76.77;50.00;;;;;;;;;;4389503;32;20252;-80
2022/12/04 02:34:41;;;;;;;87.33;54.50;;;;;;;;;;4389483;32;20714;-88
2022/12/04 02:37:12;;;;;;;87.17;54.43;;;;;;;;;;4389359;32;20230;-88
2022/12/04 02:39:44;;;;;;;78.77;52.50;;;;;;;;;;4389081;32;20252;-82
2022/12/04 02:42:16;;;;;;;90.67;57.53;;;;;;;;;;4389416;32;20724;-82
2022/12/04 02:44:49;;;;;;;96.70;60.07;;;;;;;;;;4389325;32;20335;-83
2022/12/04 02:47:23;;;;;;;94.27;56.73;;;;;;;;;;4389296;32;20306;-89
2022/12/04 02:49:54;;;;;;;95.77;56.97;;;;;;;;;;4389501;32;20249;-82
2022/12/04 02:52:29;;;;;;;97.23;57.27;;;;;;;;;;4389660;32;20689;-80
2022/12/04 02:55:00;;;;;;;87.23;54.50;;;;;;;;;;4389912;32;20266;-83
2022/12/04 02:57:31;;;;;;;80.53;54.30;;;;;;;;;;4389739;32;20304;-88
2022/12/04 03:00:01;;;;;;;96.63;61.63;;;;;;;;;;4389585;32;20221;-82
2022/12/04 03:02:33;;;;;;;107.03;62.30;;;;;;;;;;4389194;32;20253;-89
2022/12/04 03:05:03;;;;;;;105.20;61.83;;;;;;;;;;4389206;32;20222;-89
2022/12/04 03:07:36;;;;;;;98.60;61.97;;;;;;;;;;4388947;32;20698;-87
2022/12/04 03:10:08;;;;;;;101.50;62.73;;;;;;;;;;4389291;32;20267;-88
2022/12/04 03:12:41;;;;;;;100.53;61.73;;;;;;;;;;4389005;32;20637;-79
2022/12/04 03:15:15;;;;;;;105.03;60.20;;;;;;;;;;4388732;32;20287;-82
2022/12/04 03:17:47;;;;;;;89.40;59.37;;;;;;;;;;4388794;32;20291;-80
2022/12/04 03:20:15;;;;;;;92.00;56.80;;;;;;;;;;4388780;32;20282;-86
2022/12/04 03:22:47;;;;;;;95.83;56.60;;;;;;;;;;4388415;32;20575;-88
2022/12/04 03:25:14;;;;;;;82.80;52.57;;;;;;;;;;4388756;32;20260;-85
2022/12/04 03:27:51;;;;;;;89.20;51.10;;;;;;;;;;4388937;32;20328;-83
2022/12/04 03:30:22;;;;;;;72.23;46.87;;;;;;;;;;4389241;32;20225;-89
2022/12/04 03:32:52;;;;;;;71.07;44.57;;;;;;;;;;4388570;32;20705;-88
2022/12/04 03:35:23;;;;;;;70.57;42.63;;;;;;;;;;4389065;32;20979;-80
2022/12/04 03:37:57;;;;;;;65.97;41.87;;;;;;;;;;4388326;32;20230;-79
2022/12/04 03:40:27;;;;;;;69.17;41.93;;;;;;;;;;4381284;32;20213;-83
2022/12/04 03:42:59;;;;;;;70.63;43.43;;;;;;;;;;4388625;32;20230;-82
2022/12/04 03:45:30;;;;;;;70.57;42.83;;;;;;;;;;4388987;32;20226;-81
2022/12/04 03:48:04;;;;;;;64.43;42.17;;;;;;;;;;4388313;32;20329;-79
2022/12/04 03:50:38;;;;;;;54.40;36.37;;;;;;;;;;4388803;32;20315;-82
2022/12/04 03:53:09;;;;;;;57.73;38.57;;;;;;;;;;4387961;32;20225;-79
2022/12/04 03:55:44;;;;;;;59.50;38.77;;;;;;;;;;4388297;32;20226;-83
2022/12/04 03:58:18;;;;;;;54.20;38.03;;;;;;;;;;4388540;32;20302;-80
2022/12/04 04:00:51;;;;;;;59.77;37.17;;;;;;;;;;4388670;32;20222;-81
2022/12/04 04:03:22;;;;;;;59.73;36.97;;;;;;;;;;4388370;32;20250;-83
2022/12/04 04:05:55;;;;;;;55.27;37.40;;;;;;;;;;4388492;32;20246;-79
2022/12/04 04:08:26;;;;;;;57.73;38.97;;;;;;;;;;4388331;32;20214;-85
2022/12/04 04:10:57;;;;;;;61.97;39.63;;;;;;;;;;4387923;32;20241;-85
2022/12/04 04:24:51;;;;;;;86.90;53.60;;;;;;;;;;4326073;33;20239;-89
2022/12/04 04:27:19;;;;;;;80.53;48.73;;;;;;;;;;4366411;32;20262;-80
2022/12/04 04:29:46;;;;;;;80.93;45.60;;;;;;;;;;4387589;32;20250;-83
2022/12/04 04:32:21;;;;;;;75.33;46.80;;;;;;;;;;4387669;32;20256;-83
2022/12/04 04:34:56;;;;;;;88.93;49.67;;;;;;;;;;4388136;32;20218;-83
2022/12/04 04:37:30;;;;;;;72.93;44.50;;;;;;;;;;4387618;32;20303;-78
2022/12/04 04:40:04;;;;;;;87.30;53.93;;;;;;;;;;4387768;32;20677;-88
2022/12/04 04:42:37;;;;;;;83.43;51.23;;;;;;;;;;4387837;32;20737;-83
2022/12/04 04:45:08;;;;;;;76.60;47.93;;;;;;;;;;4387959;32;20267;-81
2022/12/04 04:47:45;;;;;;;74.50;47.70;;;;;;;;;;4387784;32;20229;-81
2022/12/04 04:50:12;;;;;;;71.70;47.50;;;;;;;;;;4387435;32;20680;-85
2022/12/04 04:52:43;;;;;;;78.40;49.43;;;;;;;;;;4387164;32;20604;-89
2022/12/04 04:55:11;;;;;;;83.43;51.90;;;;;;;;;;4387579;32;20654;-81
2022/12/04 04:57:38;;;;;;;100.23;59.63;;;;;;;;;;4387563;32;20238;-85
2022/12/04 05:00:08;;;;;;;118.50;69.43;;;;;;;;;;4387312;32;20544;-88
2022/12/04 05:02:36;;;;;;;97.90;57.20;;;;;;;;;;4387688;32;20697;-89
2022/12/04 05:05:04;;;;;;;85.13;53.03;;;;;;;;;;4387709;32;20279;-89
2022/12/04 05:07:30;;;;;;;83.73;52.20;;;;;;;;;;4386813;32;20234;-88
2022/12/04 05:09:57;;;;;;;72.93;49.17;;;;;;;;;;4387299;32;20682;-83
2022/12/04 05:12:24;;;;;;;89.63;50.67;;;;;;;;;;4387419;32;20306;-85
2022/12/04 05:14:53;;;;;;;75.00;48.60;;;;;;;;;;4387297;32;20270;-82
2022/12/04 05:17:20;;;;;;;83.87;50.17;;;;;;;;;;4387249;32;20322;-80
2022/12/04 05:19:55;;;;;;;82.00;48.77;;;;;;;;;;4387227;32;20210;-81
2022/12/04 05:22:26;;;;;;;82.80;50.57;;;;;;;;;;4378326;32;20279;-83
2022/12/04 05:24:53;;;;;;;82.40;51.63;;;;;;;;;;4378174;32;20678;-81
2022/12/04 05:27:21;;;;;;;90.87;58.73;;;;;;;;;;4386948;32;20258;-80
2022/12/04 05:29:48;;;;;;;91.07;57.87;;;;;;;;;;4387079;32;20271;-78
2022/12/04 05:32:15;;;;;;;112.57;71.40;;;;;;;;;;4387028;32;20240;-88
2022/12/04 05:34:41;;;;;;;112.20;74.20;;;;;;;;;;4387234;32;20300;-87
2022/12/04 05:37:10;;;;;;;100.00;66.70;;;;;;;;;;4386630;32;20257;-81
2022/12/04 05:39:36;;;;;;;117.37;70.53;;;;;;;;;;4382096;32;20275;-88
2022/12/04 05:42:04;;;;;;;95.40;61.20;;;;;;;;;;4371905;32;20265;-78
2022/12/04 05:44:31;;;;;;;88.03;57.90;;;;;;;;;;4372263;32;20296;-87
2022/12/04 05:46:58;;;;;;;94.30;59.27;;;;;;;;;;4371868;32;21039;-87
2022/12/04 05:49:25;;;;;;;93.83;58.43;;;;;;;;;;4371779;32;20206;-80
2022/12/04 05:51:53;;;;;;;91.37;57.63;;;;;;;;;;4371498;32;20397;-82
2022/12/04 05:54:22;;;;;;;96.23;60.00;;;;;;;;;;4371674;32;20320;-82
2022/12/04 05:56:50;;;;;;;89.40;59.37;;;;;;;;;;4371864;32;20245;-79
2022/12/04 05:59:17;;;;;;;95.73;61.40;;;;;;;;;;4372002;32;20733;-86
2022/12/04 06:01:44;;;;;;;92.90;62.60;;;;;;;;;;4373133;32;21169;-80
2022/12/04 06:04:12;;;;;;;87.73;59.63;;;;;;;;;;4387532;32;20249;-80
2022/12/04 06:06:39;;;;;;;85.67;58.70;;;;;;;;;;4388255;32;20243;-85
2022/12/04 06:09:08;;;;;;;103.60;64.23;;;;;;;;;;4391500;32;20230;-80
2022/12/04 06:11:38;;;;;;;96.93;63.33;;;;;;;;;;4406180;32;20239;-83
2022/12/04 06:14:06;;;;;;;99.27;63.67;;;;;;;;;;4404706;32;20299;-78
2022/12/04 06:16:35;;;;;;;108.20;65.30;;;;;;;;;;4392815;32;20611;-88
2022/12/04 06:19:05;;;;;;;98.70;66.07;;;;;;;;;;4387824;32;20329;-79
2022/12/04 06:21:34;;;;;;;109.10;62.60;;;;;;;;;;4383164;32;20320;-89
2022/12/04 06:24:01;;;;;;;104.20;65.73;;;;;;;;;;4371586;32;20246;-89
2022/12/04 06:26:28;;;;;;;98.53;66.53;;;;;;;;;;4372218;32;20219;-90
2022/12/04 06:28:57;;;;;;;87.80;60.70;;;;;;;;;;4385269;32;20253;-82
2022/12/04 06:31:26;;;;;;;96.33;59.03;;;;;;;;;;4386605;32;20673;-91
2022/12/04 06:33:53;;;;;;;106.63;70.47;;;;;;;;;;4386352;32;20295;-81
2022/12/04 06:36:21;;;;;;;109.03;69.80;;;;;;;;;;4386854;32;21042;-89
2022/12/04 06:38:49;;;;;;;144.80;87.20;;;;;;;;;;4385191;32;20814;-82
2022/12/04 06:41:21;;;;;;;159.03;98.93;;;;;;;;;;4388019;32;20290;-83
2022/12/04 06:43:50;;;;;;;139.43;84.37;;;;;;;;;;4389067;32;20241;-83
2022/12/04 06:46:19;;;;;;;122.27;79.10;;;;;;;;;;4389097;32;20251;-81
2022/12/04 06:48:47;;;;;;;136.90;88.47;;;;;;;;;;4389802;32;20269;-83
2022/12/04 06:51:15;;;;;;;137.00;83.67;;;;;;;;;;4388785;32;20298;-84
2022/12/04 06:53:45;;;;;;;138.53;88.20;;;;;;;;;;4389015;32;20386;-87
2022/12/04 06:56:16;;;;;;;145.13;87.17;;;;;;;;;;4388952;32;20265;-84
2022/12/04 06:58:44;;;;;;;143.80;84.67;;;;;;;;;;4389095;32;20628;-85
2022/12/04 07:01:13;;;;;;;137.10;87.80;;;;;;;;;;4389271;32;20294;-80
2022/12/04 07:03:44;;;;;;;138.07;88.83;;;;;;;;;;4388946;32;20305;-83
2022/12/04 07:06:13;;;;;;;142.50;88.00;;;;;;;;;;4389199;32;20218;-83
2022/12/04 07:08:43;;;;;;;121.87;77.27;;;;;;;;;;4388652;32;20233;-91
2022/12/04 07:11:10;;;;;;;111.10;71.30;;;;;;;;;;4389422;32;20213;-82
2022/12/04 07:13:37;;;;;;;96.73;61.50;;;;;;;;;;4389492;32;20237;-81
2022/12/04 07:16:07;;;;;;;81.30;57.00;;;;;;;;;;4389259;32;20691;-82
2022/12/04 07:18:34;;;;;;;91.40;57.10;;;;;;;;;;4388864;32;20241;-81
2022/12/04 07:21:05;;;;;;;97.13;59.73;;;;;;;;;;4388362;32;20241;-84
2022/12/04 07:23:31;;;;;;;86.43;57.73;;;;;;;;;;4373945;32;20222;-85
2022/12/04 07:25:59;;;;;;;87.70;56.57;;;;;;;;;;4382688;32;20730;-89
2022/12/04 07:28:26;;;;;;;84.60;54.20;;;;;;;;;;4389876;32;20279;-92
2022/12/04 07:30:52;;;;;;;68.77;48.10;;;;;;;;;;4390861;32;20350;-80
2022/12/04 07:33:21;;;;;;;92.80;52.17;;;;;;;;;;4391394;32;20226;-81
2022/12/04 07:35:55;;;;;;;274.43;108.20;;;;;;;;;;4392689;32;20248;-82
2022/12/04 07:38:24;;;;;;;326.13;120.30;;;;;;;;;;4393691;32;20255;-91
2022/12/04 07:40:51;;;;;;;492.53;190.00;;;;;;;;;;4393441;32;20233;-80
2022/12/04 07:43:18;;;;;;;99.93;62.07;;;;;;;;;;4400895;32;20174;-80
2022/12/04 07:45:44;;;;;;;97.97;58.77;;;;;;;;;;4398618;32;20233;-82
2022/12/04 07:48:11;;;;;;;81.23;55.43;;;;;;;;;;4397383;32;20218;-81
2022/12/04 07:50:38;;;;;;;86.77;57.83;;;;;;;;;;4395055;32;20229;-81
2022/12/04 07:53:05;;;;;;;173.00;82.33;;;;;;;;;;4397477;32;20209;-81
2022/12/04 07:55:33;;;;;;;102.80;63.00;;;;;;;;;;4396657;32;20301;-83
2022/12/04 07:58:00;;;;;;;101.87;64.83;;;;;;;;;;4395477;32;20253;-85
2022/12/04 08:00:27;;;;;;;78.30;51.00;;;;;;;;;;4395281;32;20303;-85
2022/12/04 08:02:53;;;;;;;78.23;48.13;;;;;;;;;;4395854;32;20257;-82
2022/12/04 08:05:20;;;;;;;68.30;46.67;;;;;;;;;;4397074;32;20311;-84
2022/12/04 08:07:47;;;;;;;65.17;43.50;;;;;;;;;;4393735;32;20532;-83
2022/12/04 08:10:14;;;;;;;69.80;43.17;;;;;;;;;;4388882;32;20245;-83
2022/12/04 08:12:42;;;;;;;69.07;43.23;;;;;;;;;;4375139;32;20296;-87
2022/12/04 08:15:10;;;;;;;62.03;36.10;;;;;;;;;;4388776;32;20222;-83
2022/12/04 08:17:37;;;;;;;60.40;35.37;;;;;;;;;;4390556;32;20214;-82
2022/12/04 08:20:04;;;;;;;48.80;32.87;;;;;;;;;;4387492;32;20292;-85
2022/12/04 08:22:31;;;;;;;46.43;32.77;;;;;;;;;;4388283;32;20253;-82
2022/12/04 08:24:58;;;;;;;50.47;32.37;;;;;;;;;;4388600;32;20222;-86
2022/12/04 08:27:25;;;;;;;48.87;30.83;;;;;;;;;;4388960;32;20275;-85
2022/12/04 08:29:53;;;;;;;52.40;32.73;;;;;;;;;;4389218;32;20746;-86
2022/12/04 08:32:20;;;;;;;46.17;32.67;;;;;;;;;;4388619;32;20218;-83
2022/12/04 08:34:47;;;;;;;66.47;38.10;;;;;;;;;;4388500;32;20238;-86
2022/12/04 08:37:13;;;;;;;87.67;44.43;;;;;;;;;;4388994;32;20680;-87
2022/12/04 08:39:40;;;;;;;62.00;40.33;;;;;;;;;;4388433;32;20271;-84
2022/12/04 08:42:07;;;;;;;129.93;60.43;;;;;;;;;;4388656;32;20714;-88
2022/12/04 08:44:34;;;;;;;58.33;39.47;;;;;;;;;;4389065;32;20345;-89
2022/12/04 08:47:06;;;;;;;110.43;57.67;;;;;;;;;;4389242;32;20322;-82
2022/12/04 08:49:36;;;;;;;57.40;38.40;;;;;;;;;;4389314;32;20631;-85
2022/12/04 08:52:03;;;;;;;68.47;44.03;;;;;;;;;;4388405;32;20221;-88
2022/12/04 08:54:31;;;;;;;77.40;44.43;;;;;;;;;;4390203;32;20214;-88
2022/12/04 08:56:58;;;;;;;60.33;40.60;;;;;;;;;;4389927;32;20234;-81
2022/12/04 08:59:24;;;;;;;59.50;40.40;;;;;;;;;;4389595;32;20213;-86
2022/12/04 09:01:52;;;;;;;79.37;46.40;;;;;;;;;;4389867;32;20213;-84
2022/12/04 09:04:20;;;;;;;55.67;34.93;;;;;;;;;;4389775;32;20254;-89
2022/12/04 09:06:46;;;;;;;49.50;33.93;;;;;;;;;;4389842;32;20260;-86
2022/12/04 09:09:13;;;;;;;61.33;35.97;;;;;;;;;;4390038;32;20775;-80
2022/12/04 09:11:40;;;;;;;40.50;28.80;;;;;;;;;;4390703;32;20237;-86
2022/12/04 09:14:07;;;;;;;46.30;30.70;;;;;;;;;;4389822;32;20230;-84
2022/12/04 09:16:34;;;;;;;45.67;27.13;;;;;;;;;;4390557;32;20339;-85
2022/12/04 09:19:01;;;;;;;51.23;31.30;;;;;;;;;;4389920;32;20221;-81
2022/12/04 09:21:29;;;;;;;71.27;38.53;;;;;;;;;;4386633;32;20210;-86
2022/12/04 09:23:55;;;;;;;60.73;33.67;;;;;;;;;;4374826;32;20218;-81
2022/12/04 09:26:24;;;;;;;49.50;30.30;;;;;;;;;;4378009;32;20253;-83
2022/12/04 09:28:52;;;;;;;51.83;37.13;;;;;;;;;;4399036;32;20225;-83
2022/12/04 09:31:20;;;;;;;50.77;29.80;;;;;;;;;;4399695;32;20737;-84
2022/12/04 09:33:47;;;;;;;53.67;34.10;;;;;;;;;;4398603;32;20357;-82
2022/12/04 09:36:15;;;;;;;48.43;28.43;;;;;;;;;;4399762;32;20381;-85
2022/12/04 09:38:46;;;;;;;43.67;27.30;;;;;;;;;;4399162;32;20331;-83
2022/12/04 09:41:26;;;;;;;41.93;27.13;;;;;;;;;;4385898;32;20226;-82
2022/12/04 09:43:57;;;;;;;41.43;22.53;;;;;;;;;;4384553;32;20669;-83
2022/12/04 09:46:29;;;;;;;44.17;23.80;;;;;;;;;;4384474;32;20367;-79
2022/12/04 09:49:00;;;;;;;68.60;44.70;;;;;;;;;;4400226;32;20233;-82
2022/12/04 09:51:28;;;;;;;53.20;27.33;;;;;;;;;;4399598;32;20198;-85
2022/12/04 09:54:02;;;;;;;31.43;22.30;;;;;;;;;;4400118;32;20217;-83
2022/12/04 09:56:30;;;;;;;50.87;32.60;;;;;;;;;;4400040;32;20299;-82
2022/12/04 09:59:03;;;;;;;41.07;27.37;;;;;;;;;;4396177;32;20225;-87
2022/12/04 10:01:46;;;;;;;41.93;24.67;;;;;;;;;;4392480;32;20233;-79
2022/12/04 10:04:14;;;;;;;40.40;25.40;;;;;;;;;;4392164;32;20283;-80
2022/12/04 10:06:47;;;;;;;38.27;24.93;;;;;;;;;;4391288;32;20222;-84
2022/12/04 10:09:21;;;;;;;43.60;24.73;;;;;;;;;;4401838;32;20305;-83
2022/12/04 10:11:53;;;;;;;49.47;30.10;;;;;;;;;;4407040;32;20244;-83
2022/12/04 10:14:49;;;;;;;58.93;34.13;;;;;;;;;;4400023;32;20193;-90
2022/12/04 10:17:36;;;;;;;41.73;25.23;;;;;;;;;;4388924;32;20246;-83
2022/12/04 10:20:17;;;;;;;101.40;48.67;;;;;;;;;;4398286;32;20576;-85
2022/12/04 10:22:58;;;;;;;54.80;29.67;;;;;;;;;;4383044;32;20332;-83
2022/12/04 10:25:27;;;;;;;42.23;25.50;;;;;;;;;;4379644;32;20313;-86
2022/12/04 10:27:57;;;;;;;48.57;31.57;;;;;;;;;;4385783;32;20244;-81
2022/12/04 10:30:26;;;;;;;45.23;31.00;;;;;;;;;;4393119;32;20336;-82
2022/12/04 10:32:59;;;;;;;38.43;23.57;;;;;;;;;;4392529;32;20633;-81
2022/12/04 10:35:29;;;;;;;35.40;22.17;;;;;;;;;;4393809;32;20271;-81
2022/12/04 10:38:01;;;;;;;44.00;28.50;;;;;;;;;;4395664;32;20214;-82
2022/12/04 10:40:33;;;;;;;46.17;24.67;;;;;;;;;;4395091;32;20686;-86
2022/12/04 10:43:06;;;;;;;39.53;26.53;;;;;;;;;;4392773;32;20242;-89
2022/12/04 10:45:32;;;;;;;47.43;28.27;;;;;;;;;;4393167;32;20678;-81
2022/12/04 10:48:00;;;;;;;59.87;40.80;;;;;;;;;;4390472;32;20791;-82
2022/12/04 10:50:28;;;;;;;49.50;33.87;;;;;;;;;;4386469;32;20226;-88
2022/12/04 10:52:54;;;;;;;48.77;32.87;;;;;;;;;;4381075;32;20347;-83
2022/12/04 10:55:31;;;;;;;55.97;35.40;;;;;;;;;;4374336;32;20257;-80
2022/12/04 10:57:58;;;;;;;43.73;32.10;;;;;;;;;;4374352;32;20218;-85
2022/12/04 11:00:29;;;;;;;54.33;31.90;;;;;;;;;;4374708;32;20370;-81
2022/12/04 11:03:00;;;;;;;48.00;30.70;;;;;;;;;;4383940;32;20275;-81
2022/12/04 11:05:31;;;;;;;48.73;33.37;;;;;;;;;;4388964;32;20241;-82
2022/12/04 11:08:00;;;;;;;51.87;34.90;;;;;;;;;;4390453;32;20220;-83
2022/12/04 11:10:33;;;;;;;50.93;30.87;;;;;;;;;;4388953;32;20279;-83
2022/12/04 11:13:02;;;;;;;66.27;36.10;;;;;;;;;;4389641;32;20327;-84
2022/12/04 11:15:29;;;;;;;50.27;31.43;;;;;;;;;;4389692;32;20759;-84
2022/12/04 11:18:07;;;;;;;63.10;35.27;;;;;;;;;;4389169;32;20295;-86
2022/12/04 11:20:35;;;;;;;58.90;35.93;;;;;;;;;;4388772;32;20350;-81
2022/12/04 11:23:02;;;;;;;59.70;39.97;;;;;;;;;;4376281;32;20242;-82
2022/12/04 11:25:37;;;;;;;56.97;39.43;;;;;;;;;;4389565;32;20265;-84
2022/12/04 11:28:04;;;;;;;51.87;33.60;;;;;;;;;;4389546;32;20239;-81
2022/12/04 11:30:35;;;;;;;51.17;33.03;;;;;;;;;;4389747;32;20277;-81
2022/12/04 11:33:06;;;;;;;61.40;31.67;;;;;;;;;;4389583;32;20324;-84
2022/12/04 11:35:35;;;;;;;41.80;29.23;;;;;;;;;;4388564;32;20238;-80
2022/12/04 11:38:09;;;;;;;34.77;26.07;;;;;;;;;;4388607;32;20586;-81
2022/12/04 11:40:37;;;;;;;37.77;26.50;;;;;;;;;;4385960;32;20241;-83
2022/12/04 11:43:12;;;;;;;38.30;26.40;;;;;;;;;;4373463;32;20350;-85
2022/12/04 11:45:39;;;;;;;42.50;28.13;;;;;;;;;;4379613;32;20290;-87
2022/12/04 11:48:15;;;;;;;50.50;30.63;;;;;;;;;;4389002;32;20291;-82
2022/12/04 11:50:49;;;;;;;45.13;28.97;;;;;;;;;;4388469;32;20252;-83
2022/12/04 11:53:23;;;;;;;45.40;28.60;;;;;;;;;;4388579;32;20575;-85
2022/12/04 11:56:15;;;;;;;40.50;25.60;;;;;;;;;;4388361;32;20242;-85
2022/12/04 11:58:59;;;;;;;41.33;27.03;;;;;;;;;;4388713;32;20253;-84
2022/12/04 12:01:39;;;;;;;36.47;26.03;;;;;;;;;;4388651;32;20237;-87
2022/12/04 12:04:20;;;;;;;34.93;23.90;;;;;;;;;;4388354;32;20299;-86
2022/12/04 12:07:02;;;;;;;43.53;24.13;;;;;;;;;;4388330;32;20241;-86
2022/12/04 12:09:37;;;;;;;81.90;37.80;;;;;;;;;;4388497;32;20698;-85
2022/12/04 12:12:10;;;;;;;62.67;34.23;;;;;;;;;;4388697;32;20217;-88
2022/12/04 12:14:44;;;;;;;59.83;34.50;;;;;;;;;;4388651;32;20295;-85
2022/12/04 12:17:20;;;;;;;56.47;36.70;;;;;;;;;;4388650;32;20210;-83
2022/12/04 12:20:02;;;;;;;51.17;35.07;;;;;;;;;;4387845;32;20290;-85
2022/12/04 12:22:44;;;;;;;80.10;53.77;;;;;;;;;;4388105;32;20225;-88
2022/12/04 12:25:18;;;;;;;53.27;37.67;;;;;;;;;;4373185;32;20235;-83
2022/12/04 12:28:05;;;;;;;46.23;31.77;;;;;;;;;;4380011;32;20680;-82
2022/12/04 12:30:42;;;;;;;59.90;34.83;;;;;;;;;;4388152;32;20218;-89
2022/12/04 12:33:17;;;;;;;51.10;35.13;;;;;;;;;;4388108;32;20690;-84
2022/12/04 12:35:51;;;;;;;54.40;36.37;;;;;;;;;;4387629;32;20911;-83
2022/12/04 12:38:21;;;;;;;61.87;38.60;;;;;;;;;;4386454;32;20229;-83
2022/12/04 12:40:53;;;;;;;52.00;35.50;;;;;;;;;;4384518;32;20307;-85
2022/12/04 12:43:28;;;;;;;52.67;34.77;;;;;;;;;;4387441;32;20598;-90
2022/12/04 12:46:02;;;;;;;55.93;33.33;;;;;;;;;;4375801;32;20312;-83
2022/12/04 12:48:31;;;;;;;60.27;37.60;;;;;;;;;;4387289;32;20317;-82
2022/12/04 12:51:02;;;;;;;64.50;37.90;;;;;;;;;;4387260;32;20965;-83
2022/12/04 12:53:34;;;;;;;54.07;36.47;;;;;;;;;;4387804;32;20237;-83
2022/12/04 12:56:05;;;;;;;56.73;38.27;;;;;;;;;;4387122;32;20314;-84
2022/12/04 12:58:38;;;;;;;61.13;38.97;;;;;;;;;;4387462;32;20241;-88
2022/12/04 13:01:11;;;;;;;55.67;39.97;;;;;;;;;;4387698;32;20331;-90
2022/12/04 13:03:44;;;;;;;61.67;39.23;;;;;;;;;;4373175;32;20245;-83
2022/12/04 13:06:16;;;;;;;61.97;37.63;;;;;;;;;;4386847;32;20229;-85
2022/12/04 13:08:48;;;;;;;85.53;58.87;;;;;;;;;;4387219;32;20259;-85
2022/12/04 13:11:18;;;;;;;115.27;74.80;;;;;;;;;;4386922;32;21130;-83
2022/12/04 13:13:49;;;;;;;57.83;38.83;;;;;;;;;;4387415;32;20319;-84
2022/12/04 13:16:19;;;;;;;56.20;39.73;;;;;;;;;;4387194;32;20327;-82
2022/12/04 13:18:50;;;;;;;69.27;44.13;;;;;;;;;;4387073;32;20247;-82
2022/12/04 13:21:30;;;;;;;75.03;52.80;;;;;;;;;;4373193;32;20226;-88
2022/12/04 13:24:24;;;;;;;59.33;39.07;;;;;;;;;;4387259;32;20241;-83
2022/12/04 13:26:57;;;;;;;44.37;30.83;;;;;;;;;;4385148;32;20279;-88
2022/12/04 13:29:39;;;;;;;42.50;29.27;;;;;;;;;;4383106;32;20272;-83
2022/12/04 13:32:25;;;;;;;33.43;23.60;;;;;;;;;;4386249;32;20305;-85
2022/12/04 13:35:00;;;;;;;35.37;19.47;;;;;;;;;;4386609;32;20269;-83
2022/12/04 13:37:52;;;;;;;33.43;20.73;;;;;;;;;;4385617;32;20261;-83
2022/12/04 13:40:37;;;;;;;38.83;22.60;;;;;;;;;;4378094;32;20234;-84
2022/12/04 13:43:15;;;;;;;41.27;26.23;;;;;;;;;;4372149;32;20237;-88
2022/12/04 13:45:45;;;;;;;59.70;40.03;;;;;;;;;;4375181;32;20214;-81
2022/12/04 13:48:12;;;;;;;75.20;49.20;;;;;;;;;;4375232;32;20315;-89
2022/12/04 13:50:40;;;;;;;79.10;50.67;;;;;;;;;;4379318;32;20273;-85
2022/12/04 13:53:30;;;;;;;71.80;45.40;;;;;;;;;;4380635;32;20253;-90
2022/12/04 13:55:59;;;;;;;56.80;37.67;;;;;;;;;;4387923;32;20262;-88
2022/12/04 13:58:29;;;;;;;78.27;44.53;;;;;;;;;;4388123;32;20312;-82
2022/12/04 14:01:11;;;;;;;81.73;47.83;;;;;;;;;;4402847;32;20222;-87
2022/12/04 14:03:46;;;;;;;50.53;33.03;;;;;;;;;;4394109;32;20304;-83
2022/12/04 14:06:22;;;;;;;48.93;29.27;;;;;;;;;;4402093;32;20256;-85
2022/12/04 14:08:55;;;;;;;40.60;25.57;;;;;;;;;;4412806;32;20237;-82
2022/12/04 14:11:24;;;;;;;36.60;24.87;;;;;;;;;;4411598;32;20481;-83
2022/12/04 14:13:53;;;;;;;38.13;26.10;;;;;;;;;;4403167;32;20241;-82
2022/12/04 14:16:25;;;;;;;65.23;42.13;;;;;;;;;;4397046;32;20237;-82
2022/12/04 14:18:55;;;;;;;96.37;56.93;;;;;;;;;;4391732;32;20287;-84
2022/12/04 14:21:22;;;;;;;111.70;63.80;;;;;;;;;;4390941;32;20245;-88
2022/12/04 14:23:50;;;;;;;89.87;52.90;;;;;;;;;;4392226;32;20221;-82
2022/12/04 14:26:24;;;;;;;73.77;46.97;;;;;;;;;;4391992;32;20252;-80
2022/12/04 14:28:51;;;;;;;74.37;44.73;;;;;;;;;;4391505;32;20249;-80
2022/12/04 14:31:32;;;;;;;69.83;45.43;;;;;;;;;;4391922;32;20269;-80
2022/12/04 14:34:02;;;;;;;77.53;45.20;;;;;;;;;;4391735;32;20869;-80
2022/12/04 14:36:33;;;;;;;71.77;46.97;;;;;;;;;;4391875;32;20341;-82
2022/12/04 14:39:05;;;;;;;64.17;41.80;;;;;;;;;;4391103;32;20652;-78
2022/12/04 14:41:33;;;;;;;70.33;42.80;;;;;;;;;;4391770;32;20303;-84
2022/12/04 14:44:00;;;;;;;61.43;42.03;;;;;;;;;;4377691;32;20613;-83
2022/12/04 14:46:36;;;;;;;58.73;37.47;;;;;;;;;;4391578;32;20280;-85